Time;durP1;ratioP1;P1;durP2;ratioP2;P2;SDS_P1;SDS_P2;PMS_P1;PMS_P2;Temp;Humidity;BMP_temperature;BMP_pressure;BME280_temperature;BME280_humidity;BME280_pressure;Samples;Min_cycle;Max_cycle;Signal;HPM_P1;HPM_P2
2024/04/12 00:01:46;;;;;;;0.20;0.20;;;;;;;;;;5361288;26;20003;-82
2024/04/12 00:04:15;;;;;;;0.20;0.10;;;;;;;;;;5404556;26;20008;-83
2024/04/12 00:06:43;;;;;;;0.20;0.10;;;;;;;;;;5396249;26;20035;-82
2024/04/12 00:09:17;;;;;;;0.20;0.10;;;;;;;;;;5367730;26;20016;-81
2024/04/12 00:11:45;;;;;;;0.20;0.10;;;;;;;;;;5400162;26;20004;-82
2024/04/12 00:14:15;;;;;;;0.20;0.20;;;;;;;;;;5372027;26;20022;-82
2024/04/12 00:16:43;;;;;;;0.20;0.10;;;;;;;;;;5367883;26;20018;-81
2024/04/12 00:19:18;;;;;;;0.20;0.00;;;;;;;;;;5361254;26;20049;-82
2024/04/12 00:21:51;;;;;;;0.20;0.10;;;;;;;;;;5396954;26;20021;-82
2024/04/12 00:24:23;;;;;;;0.30;0.30;;;;;;;;;;5400076;26;20380;-82
2024/04/12 00:26:53;;;;;;;0.20;0.10;;;;;;;;;;5390039;26;20007;-83
2024/04/12 00:29:36;;;;;;;0.20;0.10;;;;;;;;;;5394209;26;20022;-83
2024/04/12 00:32:05;;;;;;;0.40;0.30;;;;;;;;;;5402449;26;22113;-81
2024/04/12 00:34:38;;;;;;;0.20;0.10;;;;;;;;;;5347581;26;20004;-82
2024/04/12 00:37:07;;;;;;;1.38;1.27;;;;;;;;;;5364282;26;20004;-82
2024/04/12 00:39:41;;;;;;;0.20;0.00;;;;;;;;;;5398062;26;20017;-81
2024/04/12 00:42:09;;;;;;;0.73;0.55;;;;;;;;;;5367310;26;20016;-81
2024/04/12 00:44:41;;;;;;;0.57;0.30;;;;;;;;;;5397000;26;20035;-82
2024/04/12 00:47:20;;;;;;;1.00;0.38;;;;;;;;;;5374051;26;20004;-82
2024/04/12 00:49:50;;;;;;;1.98;0.50;;;;;;;;;;5365544;26;20475;-82
2024/04/12 00:52:27;;;;;;;0.50;0.38;;;;;;;;;;5356718;26;20004;-83
2024/04/12 00:55:13;;;;;;;1.40;0.52;;;;;;;;;;5400980;26;20026;-82
2024/04/12 00:57:41;;;;;;;0.20;0.10;;;;;;;;;;5405768;26;20924;-82
2024/04/12 01:00:09;;;;;;;0.20;0.10;;;;;;;;;;5399549;26;20021;-82
2024/04/12 01:02:39;;;;;;;0.25;0.13;;;;;;;;;;5400922;26;20491;-83
2024/04/12 01:05:13;;;;;;;0.40;0.28;;;;;;;;;;5394380;26;20033;-83
2024/04/12 01:07:55;;;;;;;0.28;0.25;;;;;;;;;;5397140;26;20011;-82
2024/04/12 01:10:30;;;;;;;0.32;0.30;;;;;;;;;;5402256;26;20022;-81
2024/04/12 01:13:01;;;;;;;0.20;0.10;;;;;;;;;;5393557;26;20018;-83
2024/04/12 01:15:36;;;;;;;0.20;0.10;;;;;;;;;;5367799;26;20018;-84
2024/04/12 01:18:04;;;;;;;0.20;0.10;;;;;;;;;;5395766;26;20036;-83
2024/04/12 01:20:35;;;;;;;0.40;0.40;;;;;;;;;;5399517;26;20004;-82
2024/04/12 01:23:04;;;;;;;0.20;0.10;;;;;;;;;;5396898;26;20340;-83
2024/04/12 01:25:32;;;;;;;0.45;0.35;;;;;;;;;;5357789;26;20000;-83
2024/04/12 01:28:02;;;;;;;0.43;0.43;;;;;;;;;;5397267;26;21374;-82
2024/04/12 01:30:30;;;;;;;0.20;0.13;;;;;;;;;;5401679;26;20014;-82
2024/04/12 01:32:58;;;;;;;0.43;0.43;;;;;;;;;;5375743;26;20039;-82
2024/04/12 01:35:26;;;;;;;0.20;0.10;;;;;;;;;;5398877;26;20018;-82
2024/04/12 01:37:53;;;;;;;0.20;0.20;;;;;;;;;;5373046;26;20003;-82
2024/04/12 01:40:23;;;;;;;0.52;0.30;;;;;;;;;;5374248;26;20001;-82
2024/04/12 01:42:51;;;;;;;0.47;0.47;;;;;;;;;;5391861;26;20008;-81
2024/04/12 01:45:26;;;;;;;0.30;0.30;;;;;;;;;;5400014;26;20007;-82
2024/04/12 01:47:53;;;;;;;0.20;0.10;;;;;;;;;;5399914;26;20033;-84
2024/04/12 01:50:24;;;;;;;1.30;0.93;;;;;;;;;;5397809;26;20008;-82
2024/04/12 01:52:55;;;;;;;0.20;0.10;;;;;;;;;;5370724;26;20020;-82
2024/04/12 01:55:24;;;;;;;6.88;0.65;;;;;;;;;;5374093;26;20355;-82
2024/04/12 01:57:52;;;;;;;0.95;0.93;;;;;;;;;;5371664;26;20260;-82
2024/04/12 02:00:20;;;;;;;0.20;0.10;;;;;;;;;;5366228;26;20022;-83
2024/04/12 02:02:51;;;;;;;0.73;0.73;;;;;;;;;;5366780;26;20268;-85
2024/04/12 02:05:33;;;;;;;0.32;0.32;;;;;;;;;;5394289;26;20016;-83
2024/04/12 02:08:08;;;;;;;0.30;0.20;;;;;;;;;;5371012;26;20003;-82
2024/04/12 02:10:42;;;;;;;0.68;0.55;;;;;;;;;;5362399;26;20003;-83
2024/04/12 02:13:20;;;;;;;0.30;0.30;;;;;;;;;;5354452;26;20382;-85
2024/04/12 02:15:48;;;;;;;0.20;0.10;;;;;;;;;;5397465;26;20457;-83
2024/04/12 02:18:19;;;;;;;0.20;0.00;;;;;;;;;;5369411;26;20011;-83
2024/04/12 02:20:49;;;;;;;0.20;0.20;;;;;;;;;;5351894;26;20018;-81
2024/04/12 02:23:19;;;;;;;0.30;0.25;;;;;;;;;;5399382;26;20003;-82
2024/04/12 02:25:47;;;;;;;0.60;0.60;;;;;;;;;;5398343;26;20026;-82
2024/04/12 02:28:16;;;;;;;0.43;0.43;;;;;;;;;;5361331;26;20022;-84
2024/04/12 02:30:45;;;;;;;0.20;0.10;;;;;;;;;;5387013;26;20475;-83
2024/04/12 02:33:17;;;;;;;0.75;0.68;;;;;;;;;;5371430;26;20012;-82
2024/04/12 02:35:44;;;;;;;0.43;0.43;;;;;;;;;;5374478;26;20003;-82
2024/04/12 02:38:16;;;;;;;0.30;0.30;;;;;;;;;;5393529;26;20021;-82
2024/04/12 02:40:46;;;;;;;0.20;0.10;;;;;;;;;;5399305;26;20004;-83
2024/04/12 02:43:18;;;;;;;0.38;0.38;;;;;;;;;;5396852;26;20017;-81
2024/04/12 02:45:48;;;;;;;0.60;0.60;;;;;;;;;;5368737;26;20018;-83
2024/04/12 02:48:20;;;;;;;0.22;0.13;;;;;;;;;;5355417;26;20008;-86
2024/04/12 02:50:48;;;;;;;0.63;0.63;;;;;;;;;;5390807;26;20004;-82
2024/04/12 02:53:18;;;;;;;0.35;0.28;;;;;;;;;;5368900;26;20004;-82
2024/04/12 02:55:49;;;;;;;0.20;0.10;;;;;;;;;;5392717;26;20018;-83
2024/04/12 02:58:16;;;;;;;0.40;0.40;;;;;;;;;;5398257;26;20008;-83
2024/04/12 03:00:44;;;;;;;0.20;0.15;;;;;;;;;;5370616;26;20030;-81
2024/04/12 03:03:12;;;;;;;0.35;0.35;;;;;;;;;;5371851;26;20581;-85
2024/04/12 03:05:42;;;;;;;0.20;0.10;;;;;;;;;;5397007;26;20008;-83
2024/04/12 03:08:17;;;;;;;0.43;0.43;;;;;;;;;;5377411;26;20517;-84
2024/04/12 03:10:45;;;;;;;0.28;0.17;;;;;;;;;;5398350;26;20019;-82
2024/04/12 03:13:12;;;;;;;0.52;0.32;;;;;;;;;;5394238;26;20016;-84
2024/04/12 03:15:40;;;;;;;0.55;0.55;;;;;;;;;;5367232;26;20004;-81
2024/04/12 03:18:07;;;;;;;0.73;0.20;;;;;;;;;;5402569;26;20045;-83
2024/04/12 03:20:35;;;;;;;3.92;1.77;;;;;;;;;;5401711;26;20031;-83
2024/04/12 03:23:04;;;;;;;0.30;0.20;;;;;;;;;;5401433;26;20021;-83
2024/04/12 03:25:31;;;;;;;0.22;0.17;;;;;;;;;;5376059;26;20003;-81
2024/04/12 03:27:58;;;;;;;0.88;0.88;;;;;;;;;;5376533;26;20086;-80
2024/04/12 03:30:25;;;;;;;0.20;0.10;;;;;;;;;;5377791;26;20018;-81
2024/04/12 03:32:53;;;;;;;0.20;0.10;;;;;;;;;;5369941;26;20004;-82
2024/04/12 03:35:20;;;;;;;0.20;0.10;;;;;;;;;;5403077;26;20027;-83
2024/04/12 03:38:24;;;;;;;0.35;0.17;;;;;;;;;;5373165;26;20098;-81
2024/04/12 03:40:34;;;;;;;0.20;0.20;;;;;;;;;;5404193;26;20052;-83
2024/04/12 03:43:05;;;;;;;0.65;0.65;;;;;;;;;;5402337;26;20035;-82
2024/04/12 03:45:35;;;;;;;0.47;0.30;;;;;;;;;;5402404;26;20491;-83
2024/04/12 03:48:13;;;;;;;0.30;0.28;;;;;;;;;;5406783;26;20024;-81
2024/04/12 03:50:48;;;;;;;0.57;0.32;;;;;;;;;;5375586;26;20039;-78
2024/04/12 03:53:16;;;;;;;0.20;0.10;;;;;;;;;;5405709;26;20118;-80
2024/04/12 03:55:44;;;;;;;0.20;0.20;;;;;;;;;;5403243;26;20004;-79
2024/04/12 03:58:17;;;;;;;0.43;0.38;;;;;;;;;;5406541;26;20036;-82
2024/04/12 04:00:45;;;;;;;2.17;0.30;;;;;;;;;;5358789;26;20041;-80
2024/04/12 04:03:31;;;;;;;0.20;0.10;;;;;;;;;;5400289;26;20004;-82
2024/04/12 04:06:05;;;;;;;0.32;0.32;;;;;;;;;;5377853;26;20021;-80
2024/04/12 04:08:47;;;;;;;0.20;0.13;;;;;;;;;;5372267;26;20003;-80
2024/04/12 04:11:16;;;;;;;0.38;0.13;;;;;;;;;;5396856;26;20043;-83
2024/04/12 04:13:46;;;;;;;0.38;0.35;;;;;;;;;;5395496;26;20446;-83
2024/04/12 04:16:17;;;;;;;0.25;0.22;;;;;;;;;;5394839;26;20007;-83
2024/04/12 04:18:49;;;;;;;0.28;0.25;;;;;;;;;;5403927;26;20015;-82
2024/04/12 04:21:16;;;;;;;0.20;0.10;;;;;;;;;;5354631;26;20004;-83
2024/04/12 04:23:44;;;;;;;0.50;0.50;;;;;;;;;;5403527;26;20035;-85
2024/04/12 04:26:11;;;;;;;0.22;0.15;;;;;;;;;;5399674;26;20004;-82
2024/04/12 04:28:38;;;;;;;0.20;0.10;;;;;;;;;;5374437;26;20359;-83
2024/04/12 04:31:06;;;;;;;0.40;0.40;;;;;;;;;;5378454;26;20018;-83
2024/04/12 04:33:33;;;;;;;0.20;0.17;;;;;;;;;;5403735;26;20039;-82
2024/04/12 04:36:08;;;;;;;0.73;0.40;;;;;;;;;;5404457;26;20018;-83
2024/04/12 04:38:39;;;;;;;0.77;0.57;;;;;;;;;;5354008;26;20016;-82
2024/04/12 04:41:07;;;;;;;0.40;0.40;;;;;;;;;;5399432;26;20022;-82
2024/04/12 04:43:35;;;;;;;0.30;0.30;;;;;;;;;;5398918;26;20018;-81
2024/04/12 04:46:22;;;;;;;0.20;0.10;;;;;;;;;;5399570;26;20026;-83
2024/04/12 04:48:50;;;;;;;0.38;0.38;;;;;;;;;;5399168;26;20007;-85
2024/04/12 04:51:17;;;;;;;0.25;0.15;;;;;;;;;;5399623;26;20015;-81
2024/04/12 04:53:44;;;;;;;0.20;0.10;;;;;;;;;;5372949;26;20011;-81
2024/04/12 04:56:12;;;;;;;0.95;0.50;;;;;;;;;;5371437;26;20015;-82
2024/04/12 04:58:42;;;;;;;0.20;0.10;;;;;;;;;;5412762;21;20013;-79
2024/04/12 05:01:12;;;;;;;0.20;0.10;;;;;;;;;;5328239;26;20352;-79
2024/04/12 05:03:39;;;;;;;0.20;0.05;;;;;;;;;;5325396;26;20023;-80
2024/04/12 05:06:07;;;;;;;0.20;0.00;;;;;;;;;;5327944;26;20344;-79
2024/04/12 05:08:35;;;;;;;0.43;0.30;;;;;;;;;;5343376;26;20009;-78
2024/04/12 05:11:05;;;;;;;0.38;0.28;;;;;;;;;;5329138;26;20402;-80
2024/04/12 05:13:38;;;;;;;0.82;0.20;;;;;;;;;;5326820;26;20004;-80
2024/04/12 05:16:11;;;;;;;0.20;0.00;;;;;;;;;;5325072;26;20009;-78
2024/04/12 05:18:38;;;;;;;0.20;0.20;;;;;;;;;;5326879;26;20023;-79
2024/04/12 05:21:05;;;;;;;0.20;0.10;;;;;;;;;;5354918;26;20645;-79
2024/04/12 05:23:34;;;;;;;0.20;0.10;;;;;;;;;;5327796;26;20023;-78
2024/04/12 05:26:01;;;;;;;0.20;0.10;;;;;;;;;;5325657;26;20033;-78
2024/04/12 05:28:28;;;;;;;0.20;0.20;;;;;;;;;;5329436;26;20036;-78
2024/04/12 05:30:56;;;;;;;0.20;0.00;;;;;;;;;;5327761;26;20068;-80
2024/04/12 05:33:24;;;;;;;0.95;0.35;;;;;;;;;;5325318;26;20037;-79
2024/04/12 05:35:52;;;;;;;0.20;0.10;;;;;;;;;;5329394;26;20037;-80
2024/04/12 05:38:24;;;;;;;1.20;0.55;;;;;;;;;;5321350;26;20375;-78
2024/04/12 05:40:56;;;;;;;0.20;0.10;;;;;;;;;;5320584;26;20036;-77
2024/04/12 05:43:25;;;;;;;0.20;0.15;;;;;;;;;;5333105;26;20010;-80
2024/04/12 05:45:53;;;;;;;0.30;0.20;;;;;;;;;;5334478;26;20471;-78
2024/04/12 05:48:21;;;;;;;0.20;0.10;;;;;;;;;;5319430;26;20006;-78
2024/04/12 05:50:50;;;;;;;2.53;0.80;;;;;;;;;;5327755;26;20607;-80
2024/04/12 05:53:18;;;;;;;0.20;0.10;;;;;;;;;;5330191;26;20009;-76
2024/04/12 05:55:46;;;;;;;0.20;0.15;;;;;;;;;;5350926;26;20005;-78
2024/04/12 05:58:17;;;;;;;0.20;0.10;;;;;;;;;;5325364;26;20038;-76
2024/04/12 06:00:47;;;;;;;0.23;0.17;;;;;;;;;;5333990;26;20013;-82
2024/04/12 06:03:15;;;;;;;0.20;0.10;;;;;;;;;;5331451;26;20024;-78
2024/04/12 06:05:42;;;;;;;0.20;0.10;;;;;;;;;;5331267;26;20004;-77
2024/04/12 06:08:13;;;;;;;0.20;0.10;;;;;;;;;;5331721;26;20038;-79
2024/04/12 06:10:46;;;;;;;0.20;0.10;;;;;;;;;;5328753;26;20037;-77
2024/04/12 06:13:16;;;;;;;0.20;0.10;;;;;;;;;;5325054;26;20009;-79
2024/04/12 06:15:44;;;;;;;0.20;0.10;;;;;;;;;;5328784;26;20390;-80
2024/04/12 06:18:12;;;;;;;0.32;0.32;;;;;;;;;;5337485;26;20486;-79
2024/04/12 06:20:40;;;;;;;0.20;0.10;;;;;;;;;;5332738;26;20041;-79
2024/04/12 06:23:10;;;;;;;0.65;0.52;;;;;;;;;;5331579;26;20006;-78
2024/04/12 06:25:45;;;;;;;0.38;0.38;;;;;;;;;;5318171;26;20002;-78
2024/04/12 06:28:13;;;;;;;0.32;0.32;;;;;;;;;;5332428;26;20029;-78
2024/04/12 06:30:43;;;;;;;0.20;0.10;;;;;;;;;;5327130;26;20041;-80
2024/04/12 06:33:12;;;;;;;0.20;0.10;;;;;;;;;;5331074;26;20486;-79
2024/04/12 06:35:40;;;;;;;0.20;0.10;;;;;;;;;;5326984;26;20475;-77
2024/04/12 06:38:10;;;;;;;0.20;0.10;;;;;;;;;;5334713;26;20005;-78
2024/04/12 06:40:37;;;;;;;0.20;0.10;;;;;;;;;;5329933;26;20020;-79
2024/04/12 06:43:11;;;;;;;0.20;0.00;;;;;;;;;;5332138;26;20019;-77
2024/04/12 06:45:41;;;;;;;0.20;0.10;;;;;;;;;;5330040;26;20013;-80
2024/04/12 06:48:10;;;;;;;0.20;0.20;;;;;;;;;;5331937;26;20341;-77
2024/04/12 06:50:37;;;;;;;0.20;0.10;;;;;;;;;;5327974;26;20009;-79
2024/04/12 06:53:08;;;;;;;0.20;0.10;;;;;;;;;;5330640;26;20522;-78
2024/04/12 06:55:46;;;;;;;0.20;0.15;;;;;;;;;;5331303;26;20005;-78
2024/04/12 06:58:13;;;;;;;0.20;0.10;;;;;;;;;;5318541;26;20010;-80
2024/04/12 07:00:43;;;;;;;3.53;1.58;;;;;;;;;;5331683;26;20730;-80
2024/04/12 07:03:15;;;;;;;0.40;0.25;;;;;;;;;;5331114;26;20381;-77
2024/04/12 07:05:47;;;;;;;0.20;0.10;;;;;;;;;;5323475;26;20005;-79
2024/04/12 07:08:16;;;;;;;0.57;0.20;;;;;;;;;;5321627;26;20029;-79
2024/04/12 07:10:48;;;;;;;0.20;0.10;;;;;;;;;;5326278;26;20552;-79
2024/04/12 07:13:26;;;;;;;0.20;0.10;;;;;;;;;;5330475;26;20013;-76
2024/04/12 07:16:01;;;;;;;0.20;0.00;;;;;;;;;;5323211;26;20556;-80
2024/04/12 07:18:29;;;;;;;0.20;0.00;;;;;;;;;;5326044;26;20023;-80
2024/04/12 07:21:15;;;;;;;0.28;0.20;;;;;;;;;;5324911;26;20005;-78
2024/04/12 07:23:46;;;;;;;0.20;0.08;;;;;;;;;;5328782;26;20461;-78
2024/04/12 07:26:27;;;;;;;0.20;0.10;;;;;;;;;;5328896;26;20036;-80
2024/04/12 07:28:59;;;;;;;0.20;0.20;;;;;;;;;;5329042;26;20041;-78
2024/04/12 07:31:34;;;;;;;0.30;0.20;;;;;;;;;;5334591;26;20056;-76
2024/04/12 07:34:02;;;;;;;0.20;0.00;;;;;;;;;;5326302;26;20521;-77
2024/04/12 07:36:32;;;;;;;0.20;0.10;;;;;;;;;;5322499;26;20005;-78
2024/04/12 07:39:03;;;;;;;0.20;0.10;;;;;;;;;;5328933;26;20386;-78
2024/04/12 07:41:34;;;;;;;0.20;0.10;;;;;;;;;;5333348;26;20029;-80
2024/04/12 07:44:04;;;;;;;0.20;0.10;;;;;;;;;;5328888;26;20019;-78
2024/04/12 07:46:35;;;;;;;0.20;0.00;;;;;;;;;;5333399;26;20025;-78
2024/04/12 07:49:02;;;;;;;0.20;0.10;;;;;;;;;;5323198;26;20005;-79
2024/04/12 07:51:39;;;;;;;0.20;0.10;;;;;;;;;;5320155;26;20033;-79
2024/04/12 07:54:11;;;;;;;0.20;0.20;;;;;;;;;;5329641;26;20042;-77
2024/04/12 07:56:46;;;;;;;0.30;0.30;;;;;;;;;;5334610;26;20025;-75
2024/04/12 07:59:13;;;;;;;0.40;0.32;;;;;;;;;;5327407;26;20863;-78
2024/04/12 08:01:51;;;;;;;0.20;0.10;;;;;;;;;;5328698;26;20028;-80
2024/04/12 08:04:25;;;;;;;0.22;0.22;;;;;;;;;;5320165;26;20005;-77
2024/04/12 08:06:56;;;;;;;0.20;0.10;;;;;;;;;;5334264;26;20033;-78
2024/04/12 08:09:46;;;;;;;0.20;0.10;;;;;;;;;;5327971;26;20408;-80
2024/04/12 08:12:14;;;;;;;0.20;0.10;;;;;;;;;;5327528;26;20053;-79
2024/04/12 08:15:06;;;;;;;0.20;0.10;;;;;;;;;;5329293;26;20049;-79
2024/04/12 08:17:40;;;;;;;0.30;0.22;;;;;;;;;;5328549;26;20041;-80
2024/04/12 08:20:13;;;;;;;0.73;0.30;;;;;;;;;;5320827;26;20015;-77
2024/04/12 08:22:43;;;;;;;0.20;0.10;;;;;;;;;;5331082;26;20037;-80
2024/04/12 08:25:17;;;;;;;0.32;0.32;;;;;;;;;;5328027;26;20109;-79
2024/04/12 08:27:44;;;;;;;0.20;0.10;;;;;;;;;;5330663;26;20360;-78
2024/04/12 08:30:19;;;;;;;0.20;0.10;;;;;;;;;;5320884;26;20004;-77
2024/04/12 08:32:49;;;;;;;0.50;0.50;;;;;;;;;;5326305;26;20768;-79
2024/04/12 08:35:24;;;;;;;0.20;0.03;;;;;;;;;;5328456;26;20077;-80
2024/04/12 08:37:51;;;;;;;0.52;0.47;;;;;;;;;;5312964;26;20489;-80
2024/04/12 08:40:19;;;;;;;0.20;0.20;;;;;;;;;;5330619;26;20473;-76
2024/04/12 08:42:47;;;;;;;0.63;0.52;;;;;;;;;;5329179;26;20147;-78
2024/04/12 08:45:17;;;;;;;0.20;0.10;;;;;;;;;;5329737;26;20489;-78
2024/04/12 08:48:04;;;;;;;0.57;0.25;;;;;;;;;;5331682;26;20033;-78
2024/04/12 08:50:32;;;;;;;0.20;0.10;;;;;;;;;;5326125;26;20020;-79
2024/04/12 08:53:04;;;;;;;0.32;0.20;;;;;;;;;;5330850;26;20005;-79
2024/04/12 08:55:33;;;;;;;;;;;;;;;;;;5324626;26;20016;-79
2024/04/12 08:58:06;;;;;;;1.27;0.95;;;;;;;;;;5330628;26;19932;-80
2024/04/12 09:00:33;;;;;;;0.20;0.10;;;;;;;;;;5327363;26;20044;-78
2024/04/12 09:03:10;;;;;;;1.17;0.98;;;;;;;;;;5324766;26;20005;-77
2024/04/12 09:05:40;;;;;;;0.40;0.40;;;;;;;;;;5325087;26;20010;-77
2024/04/12 09:08:07;;;;;;;0.40;0.20;;;;;;;;;;5322785;26;20019;-79
2024/04/12 09:10:36;;;;;;;0.20;0.10;;;;;;;;;;5331459;26;20023;-80
2024/04/12 09:13:14;;;;;;;0.20;0.20;;;;;;;;;;5325276;26;20026;-78
2024/04/12 09:15:45;;;;;;;0.20;0.10;;;;;;;;;;5327451;26;20058;-81
2024/04/12 09:18:14;;;;;;;0.20;0.10;;;;;;;;;;5325945;26;20356;-80
2024/04/12 09:20:44;;;;;;;0.20;0.10;;;;;;;;;;5322779;26;20015;-78
2024/04/12 09:23:15;;;;;;;3.10;1.00;;;;;;;;;;5324981;26;20005;-79
2024/04/12 09:25:46;;;;;;;0.32;0.32;;;;;;;;;;5324647;26;20597;-81
2024/04/12 09:28:13;;;;;;;0.20;0.10;;;;;;;;;;5329298;26;20509;-79
2024/04/12 09:33:28;;;;;;;0.45;0.45;;;;;;;;;;5329874;26;20017;-75
2024/04/12 09:36:05;;;;;;;0.40;0.40;;;;;;;;;;5325842;26;20041;-77
2024/04/12 09:38:39;;;;;;;0.38;0.38;;;;;;;;;;5329360;26;20017;-78
2024/04/12 09:41:28;;;;;;;0.28;0.08;;;;;;;;;;5321982;26;20015;-79
2024/04/12 09:44:01;;;;;;;0.30;0.22;;;;;;;;;;5314885;26;20396;-78
2024/04/12 09:46:46;;;;;;;0.30;0.25;;;;;;;;;;5326787;26;20009;-78
2024/04/12 10:39:49;;;;;;;3.20;0.73;;;;;;;;;;5318531;26;20020;-79
2024/04/12 10:42:19;;;;;;;0.32;0.22;;;;;;;;;;5323736;26;20023;-77
2024/04/12 10:44:51;;;;;;;0.90;0.57;;;;;;;;;;5314914;26;20006;-79
2024/04/12 10:47:22;;;;;;;0.25;0.22;;;;;;;;;;5332781;26;20778;-80
2024/04/12 10:49:51;;;;;;;0.20;0.20;;;;;;;;;;5321302;26;20005;-77
2024/04/12 10:52:28;;;;;;;0.63;0.63;;;;;;;;;;5321061;26;20520;-80
2024/04/12 10:54:59;;;;;;;0.47;0.32;;;;;;;;;;5326140;26;20458;-80
2024/04/12 10:57:29;;;;;;;0.40;0.35;;;;;;;;;;5316288;26;20017;-79
2024/04/12 11:00:00;;;;;;;0.35;0.30;;;;;;;;;;5400885;21;20019;-82
2024/04/12 11:02:28;;;;;;;0.20;0.20;;;;;;;;;;5349878;26;20008;-82
2024/04/12 11:07:41;;;;;;;0.20;0.10;;;;;;;;;;5353688;26;20721;-82
2024/04/12 11:10:22;;;;;;;0.20;0.10;;;;;;;;;;5360849;26;20017;-83
2024/04/12 11:12:59;;;;;;;0.20;0.10;;;;;;;;;;5360171;26;20016;-81
2024/04/12 11:31:58;;;;;;;0.20;0.10;;;;;;;;;;5360439;26;20023;-78
2024/04/12 11:34:29;;;;;;;1.10;0.82;;;;;;;;;;5367573;26;20012;-84
2024/04/12 11:37:05;;;;;;;4.20;0.63;;;;;;;;;;5358293;26;20023;-81
2024/04/12 11:39:36;;;;;;;0.38;0.38;;;;;;;;;;5361135;26;20011;-80
2024/04/12 11:42:04;;;;;;;0.20;0.10;;;;;;;;;;5358271;26;20023;-81
2024/04/12 11:44:33;;;;;;;0.35;0.20;;;;;;;;;;5349018;26;20023;-79
2024/04/12 11:47:05;;;;;;;0.88;0.60;;;;;;;;;;5357944;26;20472;-80
2024/04/12 11:49:41;;;;;;;0.22;0.22;;;;;;;;;;5356694;26;20005;-81
2024/04/12 11:52:15;;;;;;;0.20;0.15;;;;;;;;;;5363204;26;20029;-82
2024/04/12 11:54:43;;;;;;;0.20;0.10;;;;;;;;;;5366878;26;20634;-79
2024/04/12 11:57:12;;;;;;;0.20;0.08;;;;;;;;;;5361671;26;20036;-80
2024/04/12 11:59:43;;;;;;;0.57;0.35;;;;;;;;;;5366054;26;20016;-80
2024/04/12 12:02:14;;;;;;;0.22;0.22;;;;;;;;;;5367547;26;20024;-83
2024/04/12 12:04:45;;;;;;;0.20;0.10;;;;;;;;;;5364096;26;20485;-79
2024/04/12 12:07:13;;;;;;;0.28;0.20;;;;;;;;;;5362405;26;20026;-80
2024/04/12 12:09:40;;;;;;;0.20;0.10;;;;;;;;;;5377209;26;20362;-78
2024/04/12 12:12:10;;;;;;;0.35;0.28;;;;;;;;;;5370093;26;20008;-81
2024/04/12 12:14:41;;;;;;;0.20;0.00;;;;;;;;;;5362880;26;20000;-80
2024/04/12 12:17:09;;;;;;;0.20;0.03;;;;;;;;;;5358048;26;22465;-81
2024/04/12 12:19:37;;;;;;;0.20;0.10;;;;;;;;;;5363196;26;20059;-80
2024/04/12 12:22:09;;;;;;;0.20;0.10;;;;;;;;;;5362909;26;20004;-82
2024/04/12 12:24:37;;;;;;;0.20;0.03;;;;;;;;;;5372585;26;20048;-80
2024/04/12 12:27:08;;;;;;;0.30;0.20;;;;;;;;;;5365751;26;20040;-80
2024/04/12 12:29:36;;;;;;;0.20;0.15;;;;;;;;;;5361131;26;20450;-83
2024/04/12 12:32:03;;;;;;;0.28;0.13;;;;;;;;;;5362180;26;20056;-78
2024/04/12 12:34:33;;;;;;;0.68;0.68;;;;;;;;;;5358337;26;20009;-80
2024/04/12 12:37:01;;;;;;;0.20;0.10;;;;;;;;;;5363021;26;20027;-80
2024/04/12 12:39:31;;;;;;;0.20;0.10;;;;;;;;;;5365367;26;20023;-78
2024/04/12 12:41:59;;;;;;;0.75;0.40;;;;;;;;;;5361701;26;20018;-80
2024/04/12 12:44:28;;;;;;;0.20;0.13;;;;;;;;;;5357963;26;20008;-83
2024/04/12 12:46:59;;;;;;;2.97;0.93;;;;;;;;;;5380076;26;20016;-82
2024/04/12 12:49:26;;;;;;;0.20;0.10;;;;;;;;;;5365729;26;20004;-83
2024/04/12 12:51:54;;;;;;;0.20;0.00;;;;;;;;;;5379540;26;20019;-81
2024/04/12 12:54:23;;;;;;;0.20;0.00;;;;;;;;;;5362142;26;20338;-78
2024/04/12 12:56:53;;;;;;;0.20;0.00;;;;;;;;;;5358948;26;20023;-80
2024/04/12 12:59:20;;;;;;;0.20;0.00;;;;;;;;;;5362234;26;20383;-80
2024/04/12 13:01:47;;;;;;;0.20;0.10;;;;;;;;;;5369550;26;20091;-80
2024/04/12 13:04:15;;;;;;;0.20;0.00;;;;;;;;;;5356955;26;20012;-80
2024/04/12 13:06:43;;;;;;;0.20;0.08;;;;;;;;;;5364027;26;20022;-83
2024/04/12 13:09:16;;;;;;;0.20;0.00;;;;;;;;;;5367673;26;20460;-81
2024/04/12 13:11:44;;;;;;;0.25;0.05;;;;;;;;;;5363619;26;20507;-82
2024/04/12 13:14:11;;;;;;;0.20;0.10;;;;;;;;;;5371114;26;20021;-85
2024/04/12 13:16:41;;;;;;;0.20;0.13;;;;;;;;;;5359334;26;20009;-81
2024/04/12 13:19:15;;;;;;;0.20;0.00;;;;;;;;;;5359404;26;20761;-78
2024/04/12 13:21:43;;;;;;;0.20;0.10;;;;;;;;;;5359888;26;20500;-81
2024/04/12 13:24:13;;;;;;;0.57;0.32;;;;;;;;;;5368596;26;20023;-80
2024/04/12 13:26:50;;;;;;;0.20;0.10;;;;;;;;;;5367145;26;20024;-82
2024/04/12 13:29:21;;;;;;;0.20;0.05;;;;;;;;;;5378675;26;20052;-81
2024/04/12 13:31:52;;;;;;;0.20;0.15;;;;;;;;;;5356670;26;20013;-79
2024/04/12 13:34:19;;;;;;;0.20;0.10;;;;;;;;;;5358398;26;20019;-81
2024/04/12 13:36:47;;;;;;;0.20;0.10;;;;;;;;;;5361582;26;20468;-82
2024/04/12 13:39:14;;;;;;;0.20;0.10;;;;;;;;;;5354395;26;20397;-80
2024/04/12 13:41:44;;;;;;;0.20;0.10;;;;;;;;;;5350548;26;20496;-79
2024/04/12 13:44:27;;;;;;;0.20;0.00;;;;;;;;;;5357423;26;20009;-80
2024/04/12 13:52:23;;;;;;;0.20;0.10;;;;;;;;;;5357765;26;20023;-82
2024/04/12 13:54:51;;;;;;;0.30;0.25;;;;;;;;;;5360777;26;20073;-82
2024/04/12 13:57:17;;;;;;;0.20;0.10;;;;;;;;;;5357864;26;20145;-81
2024/04/12 13:59:44;;;;;;;0.20;0.00;;;;;;;;;;5357472;26;20000;-84
2024/04/12 14:02:11;;;;;;;0.20;0.10;;;;;;;;;;5359481;26;20013;-82
2024/04/12 14:04:38;;;;;;;0.43;0.30;;;;;;;;;;5362872;26;20005;-79
2024/04/12 14:07:05;;;;;;;0.20;0.08;;;;;;;;;;5358597;26;20417;-82
2024/04/12 14:09:31;;;;;;;0.20;0.10;;;;;;;;;;5361904;26;20004;-79
2024/04/12 14:11:57;;;;;;;0.20;0.05;;;;;;;;;;5365734;26;20005;-81
2024/04/12 14:14:23;;;;;;;0.20;0.00;;;;;;;;;;5360492;26;20021;-79
2024/04/12 14:16:55;;;;;;;0.75;0.52;;;;;;;;;;5359209;26;20478;-79
2024/04/12 14:19:21;;;;;;;0.20;0.00;;;;;;;;;;5358686;26;20450;-79
2024/04/12 14:21:59;;;;;;;0.20;0.10;;;;;;;;;;5359624;26;20009;-84
2024/04/12 14:27:10;;;;;;;0.52;0.20;;;;;;;;;;5360596;26;19996;-82
2024/04/12 14:29:37;;;;;;;0.20;0.10;;;;;;;;;;5368886;26;20000;-80
2024/04/12 14:32:06;;;;;;;0.20;0.10;;;;;;;;;;5364791;26;20029;-82
2024/04/12 14:34:34;;;;;;;0.20;0.00;;;;;;;;;;5357884;26;20404;-81
2024/04/12 14:37:00;;;;;;;1.08;0.73;;;;;;;;;;5364165;26;20004;-82
2024/04/12 14:39:28;;;;;;;0.20;0.10;;;;;;;;;;5367184;26;20000;-79
2024/04/12 14:41:57;;;;;;;5.43;0.75;;;;;;;;;;5373831;26;19997;-80
2024/04/12 14:44:24;;;;;;;4.68;0.40;;;;;;;;;;5362940;26;20001;-80
2024/04/12 14:46:50;;;;;;;0.32;0.25;;;;;;;;;;5356587;26;20000;-81
2024/04/12 14:49:16;;;;;;;0.20;0.10;;;;;;;;;;5359239;26;20444;-79
2024/04/12 14:51:43;;;;;;;0.28;0.28;;;;;;;;;;5362932;26;20000;-81
2024/04/12 14:54:13;;;;;;;0.20;0.15;;;;;;;;;;5356306;26;20053;-82
2024/04/12 14:56:39;;;;;;;0.30;0.28;;;;;;;;;;5357595;26;20018;-80
2024/04/12 14:59:07;;;;;;;0.20;0.10;;;;;;;;;;5360307;26;20016;-79
2024/04/12 15:01:39;;;;;;;0.40;0.40;;;;;;;;;;5373437;26;20065;-80
2024/04/12 15:48:14;;;;;;;0.20;0.20;;;;;;;;;;5343473;26;19997;-79
2024/04/12 15:50:40;;;;;;;0.20;0.10;;;;;;;;;;5350951;26;20007;-80
2024/04/12 15:53:18;;;;;;;0.20;0.10;;;;;;;;;;5366192;26;20011;-80
2024/04/12 16:12:17;;;;;;;0.20;0.10;;;;;;;;;;5352409;26;20001;-79
2024/04/12 16:14:43;;;;;;;0.20;0.10;;;;;;;;;;5358299;26;20000;-79
2024/04/12 16:17:11;;;;;;;0.20;0.00;;;;;;;;;;5351741;26;20471;-81
2024/04/12 16:19:41;;;;;;;0.20;0.10;;;;;;;;;;5357420;26;20492;-80
2024/04/12 16:22:08;;;;;;;0.20;0.08;;;;;;;;;;5350353;26;20011;-80
2024/04/12 16:24:34;;;;;;;2.92;0.80;;;;;;;;;;5367402;26;19997;-80
2024/04/12 16:27:00;;;;;;;0.20;0.10;;;;;;;;;;5350254;26;20357;-82
2024/04/12 16:29:26;;;;;;;0.20;0.08;;;;;;;;;;5361009;26;20849;-82
2024/04/12 16:31:52;;;;;;;0.20;0.10;;;;;;;;;;5359243;26;20018;-79
2024/04/12 16:34:18;;;;;;;0.30;0.20;;;;;;;;;;5363480;26;20500;-81
2024/04/12 16:36:45;;;;;;;0.68;0.13;;;;;;;;;;5352111;26;20024;-76
2024/04/12 16:39:11;;;;;;;0.70;0.70;;;;;;;;;;5364059;26;20028;-80
2024/04/12 16:41:37;;;;;;;0.20;0.10;;;;;;;;;;5366722;26;20015;-78
2024/04/12 16:44:04;;;;;;;0.20;0.10;;;;;;;;;;5361483;26;20139;-81
2024/04/12 16:46:30;;;;;;;0.20;0.08;;;;;;;;;;5358104;26;20012;-79
2024/04/12 16:48:57;;;;;;;0.20;0.10;;;;;;;;;;5357320;26;20011;-79
2024/04/12 16:51:24;;;;;;;0.47;0.32;;;;;;;;;;5362636;26;20468;-81
2024/04/12 16:53:50;;;;;;;0.20;0.20;;;;;;;;;;5358341;26;20000;-83
2024/04/12 16:56:16;;;;;;;0.20;0.08;;;;;;;;;;5359820;26;20001;-82
2024/04/12 17:01:12;;;;;;;0.20;0.10;;;;;;;;;;5361144;26;20344;-80
2024/04/12 17:03:38;;;;;;;0.30;0.30;;;;;;;;;;5360940;26;19997;-80
2024/04/12 17:06:04;;;;;;;0.57;0.20;;;;;;;;;;5360962;26;20005;-80
2024/04/12 17:08:31;;;;;;;4.85;1.05;;;;;;;;;;5360468;26;20017;-78
2024/04/12 17:10:57;;;;;;;0.20;0.10;;;;;;;;;;5307950;26;20004;-79
2024/04/12 17:13:23;;;;;;;0.25;0.17;;;;;;;;;;5344114;26;20052;-80
2024/04/12 17:15:49;;;;;;;0.63;0.50;;;;;;;;;;5346319;26;20528;-78
2024/04/12 17:18:17;;;;;;;0.20;0.10;;;;;;;;;;5313432;26;20087;-79
2024/04/12 17:20:44;;;;;;;0.20;0.20;;;;;;;;;;5341194;26;20005;-80
2024/04/12 17:23:10;;;;;;;0.30;0.30;;;;;;;;;;5305150;26;20657;-79
2024/04/12 17:25:37;;;;;;;0.20;0.20;;;;;;;;;;5328301;26;20083;-81